Sweetwater, North Carolina
Current Conditions -  °F | °C
As of 9:35 PM on Sunday 21 Dec 2014 (Local Time) from KTNB Reporting Station
Haze Haze  
Wind Chill: 31°   Ceiling: 200
Heat Index: 35°   Visibility: 1.5mi
Dew Point: 35°   Wind: 5mph
Humidity: 100%   Direction: 130°SE
Pressure: 30.15"   Gusts: NA
Location:  36.2666°N, 81.8431°W
Report Text: KTNB 220235Z AUTO 13004KT 1 1/2SM BR OVC002 02/02 A3015 RMK AO2 T00150015
Loading
Personal Weather Stations






























Interactive Weather Map New forecast layout! Learn more

10-Day Weather Forecast

Advertisements
Track Severe Weather on mobile